sensor_id;sensor_type;location;lat;lon;timestamp;pressure;altitude;pressure_sealevel;temperature;humidity
2339;BME280;1180;51.438;6.978;2023-05-07T00:01:25;100320.47;;;18.76;89.31
2339;BME280;1180;51.438;6.978;2023-05-07T00:03:51;100325.50;;;18.78;89.14
2339;BME280;1180;51.438;6.978;2023-05-07T00:06:16;100319.94;;;18.73;90.05
2339;BME280;1180;51.438;6.978;2023-05-07T00:08:42;100325.81;;;18.75;89.99
2339;BME280;1180;51.438;6.978;2023-05-07T00:11:07;100314.59;;;18.74;90.24
2339;BME280;1180;51.438;6.978;2023-05-07T00:13:34;100314.84;;;18.71;90.36
2339;BME280;1180;51.438;6.978;2023-05-07T00:16:01;100318.97;;;18.74;90.35
2339;BME280;1180;51.438;6.978;2023-05-07T00:18:27;100330.31;;;18.73;90.18
2339;BME280;1180;51.438;6.978;2023-05-07T00:20:53;100321.03;;;18.70;90.04
2339;BME280;1180;51.438;6.978;2023-05-07T00:23:19;100320.59;;;18.75;89.93
2339;BME280;1180;51.438;6.978;2023-05-07T00:25:44;100313.75;;;18.74;90.28
2339;BME280;1180;51.438;6.978;2023-05-07T00:28:09;100313.09;;;18.72;90.57
2339;BME280;1180;51.438;6.978;2023-05-07T00:30:35;100315.88;;;18.60;91.15
2339;BME280;1180;51.438;6.978;2023-05-07T00:33:00;100318.31;;;18.62;91.28
2339;BME280;1180;51.438;6.978;2023-05-07T00:35:25;100309.03;;;18.59;91.64
2339;BME280;1180;51.438;6.978;2023-05-07T00:37:51;100299.31;;;18.61;91.09
2339;BME280;1180;51.438;6.978;2023-05-07T00:40:16;100295.22;;;18.59;91.32
2339;BME280;1180;51.438;6.978;2023-05-07T00:42:42;100302.44;;;18.65;91.17
2339;BME280;1180;51.438;6.978;2023-05-07T00:45:13;100301.63;;;18.65;91.01
2339;BME280;1180;51.438;6.978;2023-05-07T00:47:39;100299.16;;;18.63;90.58
2339;BME280;1180;51.438;6.978;2023-05-07T00:50:05;100294.13;;;18.61;90.64
2339;BME280;1180;51.438;6.978;2023-05-07T00:52:31;100292.78;;;18.57;90.61
2339;BME280;1180;51.438;6.978;2023-05-07T00:54:56;100291.69;;;18.50;91.40
2339;BME280;1180;51.438;6.978;2023-05-07T00:57:23;100287.59;;;18.47;91.19
2339;BME280;1180;51.438;6.978;2023-05-07T00:59:51;100286.94;;;18.45;91.28
2339;BME280;1180;51.438;6.978;2023-05-07T01:02:16;100293.50;;;18.40;91.62
2339;BME280;1180;51.438;6.978;2023-05-07T01:04:42;100296.94;;;18.40;91.61
2339;BME280;1180;51.438;6.978;2023-05-07T01:07:07;100289.53;;;18.36;92.38
2339;BME280;1180;51.438;6.978;2023-05-07T01:09:33;100295.41;;;18.38;92.45
2339;BME280;1180;51.438;6.978;2023-05-07T01:12:00;100297.72;;;18.41;92.02
2339;BME280;1180;51.438;6.978;2023-05-07T01:14:26;100297.06;;;18.39;92.60
2339;BME280;1180;51.438;6.978;2023-05-07T01:16:52;100292.72;;;18.29;92.91
2339;BME280;1180;51.438;6.978;2023-05-07T01:19:18;100286.69;;;18.29;93.44
2339;BME280;1180;51.438;6.978;2023-05-07T01:21:46;100284.91;;;18.29;93.27
2339;BME280;1180;51.438;6.978;2023-05-07T01:24:13;100294.47;;;18.29;93.35
2339;BME280;1180;51.438;6.978;2023-05-07T01:26:40;100294.34;;;18.30;93.29
2339;BME280;1180;51.438;6.978;2023-05-07T01:29:06;100297.91;;;18.29;93.55
2339;BME280;1180;51.438;6.978;2023-05-07T01:31:32;100295.31;;;18.29;94.25
2339;BME280;1180;51.438;6.978;2023-05-07T01:33:59;100291.38;;;18.25;94.66
2339;BME280;1180;51.438;6.978;2023-05-07T01:36:27;100293.91;;;18.35;93.80
2339;BME280;1180;51.438;6.978;2023-05-07T01:38:53;100287.75;;;18.36;93.97
2339;BME280;1180;51.438;6.978;2023-05-07T01:41:19;100283.97;;;18.30;94.13
2339;BME280;1180;51.438;6.978;2023-05-07T01:43:45;100291.22;;;18.27;94.56
2339;BME280;1180;51.438;6.978;2023-05-07T01:46:12;100285.44;;;18.33;94.64
2339;BME280;1180;51.438;6.978;2023-05-07T01:48:38;100288.19;;;18.31;94.78
2339;BME280;1180;51.438;6.978;2023-05-07T01:51:04;100281.50;;;18.29;94.85
2339;BME280;1180;51.438;6.978;2023-05-07T01:53:36;100283.81;;;18.32;94.65
2339;BME280;1180;51.438;6.978;2023-05-07T01:56:01;100285.59;;;18.31;94.39
2339;BME280;1180;51.438;6.978;2023-05-07T01:58:27;100287.75;;;18.36;94.03
2339;BME280;1180;51.438;6.978;2023-05-07T02:00:52;100285.44;;;18.33;94.59
2339;BME280;1180;51.438;6.978;2023-05-07T02:03:17;100284.09;;;18.29;94.37
2339;BME280;1180;51.438;6.978;2023-05-07T02:05:43;100282.88;;;18.23;94.66
2339;BME280;1180;51.438;6.978;2023-05-07T02:08:08;100290.41;;;18.26;94.71
2339;BME280;1180;51.438;6.978;2023-05-07T02:10:33;100286.16;;;18.25;94.68
2339;BME280;1180;51.438;6.978;2023-05-07T02:12:59;100286.56;;;18.21;94.87
2339;BME280;1180;51.438;6.978;2023-05-07T02:15:26;100283.56;;;18.25;94.62
2339;BME280;1180;51.438;6.978;2023-05-07T02:18:00;100278.09;;;18.18;95.25
2339;BME280;1180;51.438;6.978;2023-05-07T02:20:25;100284.38;;;18.16;95.29
2339;BME280;1180;51.438;6.978;2023-05-07T02:22:51;100280.97;;;18.15;95.20
2339;BME280;1180;51.438;6.978;2023-05-07T02:25:16;100278.22;;;18.17;95.52
2339;BME280;1180;51.438;6.978;2023-05-07T02:27:41;100279.75;;;18.19;95.27
2339;BME280;1180;51.438;6.978;2023-05-07T02:30:07;100286.03;;;18.17;94.79
2339;BME280;1180;51.438;6.978;2023-05-07T02:32:32;100278.66;;;18.12;95.25
2339;BME280;1180;51.438;6.978;2023-05-07T02:34:58;100286.31;;;18.04;95.90
2339;BME280;1180;51.438;6.978;2023-05-07T02:37:23;100282.75;;;18.05;96.12
2339;BME280;1180;51.438;6.978;2023-05-07T02:39:48;100281.97;;;18.04;95.98
2339;BME280;1180;51.438;6.978;2023-05-07T02:42:13;100279.06;;;18.08;95.62
2339;BME280;1180;51.438;6.978;2023-05-07T02:44:39;100279.06;;;18.08;95.72
2339;BME280;1180;51.438;6.978;2023-05-07T02:47:04;100284.94;;;18.00;95.91
2339;BME280;1180;51.438;6.978;2023-05-07T02:49:30;100282.75;;;17.95;96.47
2339;BME280;1180;51.438;6.978;2023-05-07T02:51:55;100289.59;;;17.96;96.66
2339;BME280;1180;51.438;6.978;2023-05-07T02:54:20;100278.41;;;18.06;96.01
2339;BME280;1180;51.438;6.978;2023-05-07T02:56:46;100276.34;;;17.99;96.57
2339;BME280;1180;51.438;6.978;2023-05-07T02:59:11;100268.44;;;17.91;96.76
2339;BME280;1180;51.438;6.978;2023-05-07T03:01:36;100281.81;;;17.96;96.91
2339;BME280;1180;51.438;6.978;2023-05-07T03:04:02;100281.25;;;17.93;96.69
2339;BME280;1180;51.438;6.978;2023-05-07T03:06:27;100279.22;;;17.96;96.58
2339;BME280;1180;51.438;6.978;2023-05-07T03:08:52;100282.09;;;17.93;96.57
2339;BME280;1180;51.438;6.978;2023-05-07T03:11:18;100279.78;;;17.90;96.51
2339;BME280;1180;51.438;6.978;2023-05-07T03:13:43;100288.75;;;17.86;97.03
2339;BME280;1180;51.438;6.978;2023-05-07T03:16:08;100288.91;;;17.94;96.51
2339;BME280;1180;51.438;6.978;2023-05-07T03:18:34;100287.97;;;17.95;96.82
2339;BME280;1180;51.438;6.978;2023-05-07T03:20:59;100286.31;;;17.94;96.51
2339;BME280;1180;51.438;6.978;2023-05-07T03:23:25;100288.47;;;17.89;97.21
2339;BME280;1180;51.438;6.978;2023-05-07T03:25:50;100293.56;;;17.90;96.94
2339;BME280;1180;51.438;6.978;2023-05-07T03:28:15;100288.47;;;17.89;97.05
2339;BME280;1180;51.438;6.978;2023-05-07T03:30:40;100293.72;;;17.79;97.94
2339;BME280;1180;51.438;6.978;2023-05-07T03:33:06;100286.31;;;17.74;98.68
2339;BME280;1180;51.438;6.978;2023-05-07T03:35:31;100279.78;;;17.70;98.55
2339;BME280;1180;51.438;6.978;2023-05-07T03:37:57;100280.31;;;17.74;98.77
2339;BME280;1180;51.438;6.978;2023-05-07T03:40:22;100281.13;;;17.74;98.40
2339;BME280;1180;51.438;6.978;2023-05-07T03:42:47;100280.16;;;17.75;98.63
2339;BME280;1180;51.438;6.978;2023-05-07T03:45:13;100275.25;;;17.72;98.41
2339;BME280;1180;51.438;6.978;2023-05-07T03:47:38;100279.78;;;17.70;98.87
2339;BME280;1180;51.438;6.978;2023-05-07T03:50:04;100276.91;;;17.73;98.64
2339;BME280;1180;51.438;6.978;2023-05-07T03:52:30;100274.56;;;17.60;99.76
2339;BME280;1180;51.438;6.978;2023-05-07T03:54:55;100282.75;;;17.75;98.84
2339;BME280;1180;51.438;6.978;2023-05-07T03:57:21;100285.75;;;17.81;98.20
2339;BME280;1180;51.438;6.978;2023-05-07T03:59:46;100280.56;;;17.81;98.14
2339;BME280;1180;51.438;6.978;2023-05-07T04:02:11;100283.03;;;17.72;98.67
2339;BME280;1180;51.438;6.978;2023-05-07T04:04:37;100286.03;;;17.68;99.42
2339;BME280;1180;51.438;6.978;2023-05-07T04:07:02;100289.19;;;17.71;99.30
2339;BME280;1180;51.438;6.978;2023-05-07T04:09:28;100286.59;;;17.71;99.03
2339;BME280;1180;51.438;6.978;2023-05-07T04:11:53;100298.06;;;17.69;99.49
2339;BME280;1180;51.438;6.978;2023-05-07T04:14:18;100291.13;;;17.79;99.00
2339;BME280;1180;51.438;6.978;2023-05-07T04:16:44;100294.22;;;17.83;98.42
2339;BME280;1180;51.438;6.978;2023-05-07T04:19:09;100291.50;;;17.74;99.24
2339;BME280;1180;51.438;6.978;2023-05-07T04:21:35;100295.91;;;17.74;99.39
2339;BME280;1180;51.438;6.978;2023-05-07T04:24:00;100290.56;;;17.75;99.41
2339;BME280;1180;51.438;6.978;2023-05-07T04:26:25;100294.66;;;17.78;99.47
2339;BME280;1180;51.438;6.978;2023-05-07T04:28:51;100298.34;;;17.75;99.57
2339;BME280;1180;51.438;6.978;2023-05-07T04:31:16;100300.94;;;17.75;99.70
2339;BME280;1180;51.438;6.978;2023-05-07T04:33:42;100294.78;;;17.76;100.00
2339;BME280;1180;51.438;6.978;2023-05-07T04:36:07;100295.88;;;17.84;100.00
2339;BME280;1180;51.438;6.978;2023-05-07T04:38:33;100300.38;;;17.82;100.00
2339;BME280;1180;51.438;6.978;2023-05-07T04:41:05;100301.06;;;17.84;100.00
2339;BME280;1180;51.438;6.978;2023-05-07T04:43:31;100302.56;;;17.86;100.00
2339;BME280;1180;51.438;6.978;2023-05-07T04:45:57;100307.63;;;17.88;100.00
2339;BME280;1180;51.438;6.978;2023-05-07T04:48:22;100307.78;;;17.86;100.00
2339;BME280;1180;51.438;6.978;2023-05-07T04:50:48;100301.06;;;17.84;100.00
2339;BME280;1180;51.438;6.978;2023-05-07T04:53:14;100299.16;;;17.96;100.00
2339;BME280;1180;51.438;6.978;2023-05-07T04:55:39;100300.09;;;17.95;100.00
2339;BME280;1180;51.438;6.978;2023-05-07T04:58:05;100300.78;;;17.97;100.00
2339;BME280;1180;51.438;6.978;2023-05-07T05:00:31;100310.66;;;17.93;100.00
2339;BME280;1180;51.438;6.978;2023-05-07T05:02:56;100312.56;;;18.01;99.79
2339;BME280;1180;51.438;6.978;2023-05-07T05:05:22;100309.97;;;18.01;99.93
2339;BME280;1180;51.438;6.978;2023-05-07T05:07:47;100316.78;;;18.02;99.72
2339;BME280;1180;51.438;6.978;2023-05-07T05:10:12;100309.13;;;18.00;99.88
2339;BME280;1180;51.438;6.978;2023-05-07T05:12:38;100318.69;;;18.00;99.86
2339;BME280;1180;51.438;6.978;2023-05-07T05:15:04;100315.28;;;17.99;100.00
2339;BME280;1180;51.438;6.978;2023-05-07T05:17:29;100317.31;;;17.96;100.00
2339;BME280;1180;51.438;6.978;2023-05-07T05:19:55;100317.47;;;18.04;100.00
2339;BME280;1180;51.438;6.978;2023-05-07T05:22:20;100321.19;;;18.11;99.70
2339;BME280;1180;51.438;6.978;2023-05-07T05:24:46;100321.84;;;18.13;99.37
2339;BME280;1180;51.438;6.978;2023-05-07T05:27:11;100320.06;;;18.14;99.01
2339;BME280;1180;51.438;6.978;2023-05-07T05:29:36;100319.38;;;18.12;99.02
2339;BME280;1180;51.438;6.978;2023-05-07T05:32:02;100319.28;;;18.03;99.32
2339;BME280;1180;51.438;6.978;2023-05-07T05:34:27;100315.84;;;18.13;99.43
2339;BME280;1180;51.438;6.978;2023-05-07T05:36:52;100323.78;;;18.01;98.98
2339;BME280;1180;51.438;6.978;2023-05-07T05:39:18;100325.53;;;17.91;100.00
2339;BME280;1180;51.438;6.978;2023-05-07T05:41:44;100326.06;;;17.95;100.00
2339;BME280;1180;51.438;6.978;2023-05-07T05:44:10;100322.38;;;17.97;100.00
2339;BME280;1180;51.438;6.978;2023-05-07T05:46:35;100334.28;;;18.10;99.39
2339;BME280;1180;51.438;6.978;2023-05-07T05:49:00;100334.69;;;18.15;99.27
2339;BME280;1180;51.438;6.978;2023-05-07T05:51:26;100329.22;;;18.18;98.63
2339;BME280;1180;51.438;6.978;2023-05-07T05:53:51;100337.97;;;18.17;98.79
2339;BME280;1180;51.438;6.978;2023-05-07T05:56:17;100336.31;;;18.26;98.32
2339;BME280;1180;51.438;6.978;2023-05-07T05:58:42;100334.13;;;18.21;97.39
2339;BME280;1180;51.438;6.978;2023-05-07T06:01:07;100334.00;;;18.23;97.32
2339;BME280;1180;51.438;6.978;2023-05-07T06:03:33;100334.69;;;18.15;98.49
2339;BME280;1180;51.438;6.978;2023-05-07T06:05:58;100336.88;;;18.19;97.48
2339;BME280;1180;51.438;6.978;2023-05-07T06:08:25;100335.47;;;18.35;96.83
2339;BME280;1180;51.438;6.978;2023-05-07T06:10:50;100334.09;;;18.51;96.19
2339;BME280;1180;51.438;6.978;2023-05-07T06:13:16;100340.38;;;18.48;95.22
2339;BME280;1180;51.438;6.978;2023-05-07T06:15:41;100340.50;;;18.56;95.12
2339;BME280;1180;51.438;6.978;2023-05-07T06:18:06;100338.69;;;18.67;95.09
2339;BME280;1180;51.438;6.978;2023-05-07T06:20:31;100338.97;;;18.73;94.82
2339;BME280;1180;51.438;6.978;2023-05-07T06:22:57;100344.09;;;18.83;95.18
2339;BME280;1180;51.438;6.978;2023-05-07T06:25:22;100342.84;;;18.87;93.48
2339;BME280;1180;51.438;6.978;2023-05-07T06:27:49;100348.34;;;18.84;91.94
2339;BME280;1180;51.438;6.978;2023-05-07T06:30:15;100350.56;;;18.69;92.77
2339;BME280;1180;51.438;6.978;2023-05-07T06:32:41;100357.06;;;18.93;92.33
2339;BME280;1180;51.438;6.978;2023-05-07T06:35:06;100360.22;;;19.07;90.75
2339;BME280;1180;51.438;6.978;2023-05-07T06:37:32;100358.75;;;19.22;90.15
2339;BME280;1180;51.438;6.978;2023-05-07T06:39:57;100363.31;;;19.10;90.46
2339;BME280;1180;51.438;6.978;2023-05-07T06:42:22;100354.81;;;19.18;89.23
2339;BME280;1180;51.438;6.978;2023-05-07T06:44:48;100351.91;;;19.21;88.62
2339;BME280;1180;51.438;6.978;2023-05-07T06:47:13;100351.47;;;19.26;88.36
2339;BME280;1180;51.438;6.978;2023-05-07T06:49:38;100355.50;;;19.38;87.54
2339;BME280;1180;51.438;6.978;2023-05-07T06:52:04;100353.28;;;19.43;87.09
2339;BME280;1180;51.438;6.978;2023-05-07T06:54:29;100353.38;;;19.52;87.41
2339;BME280;1180;51.438;6.978;2023-05-07T06:56:54;100348.94;;;19.62;87.31
2339;BME280;1180;51.438;6.978;2023-05-07T06:59:20;100352.28;;;19.72;86.97
2339;BME280;1180;51.438;6.978;2023-05-07T07:01:45;100357.84;;;19.77;86.18
2339;BME280;1180;51.438;6.978;2023-05-07T07:04:11;100350.09;;;19.86;86.17
2339;BME280;1180;51.438;6.978;2023-05-07T07:06:36;100355.91;;;19.80;85.25
2339;BME280;1180;51.438;6.978;2023-05-07T07:09:01;100347.13;;;19.81;85.00
2339;BME280;1180;51.438;6.978;2023-05-07T07:11:27;100352.56;;;19.87;84.76
2339;BME280;1180;51.438;6.978;2023-05-07T07:13:52;100351.25;;;20.01;83.56
2339;BME280;1180;51.438;6.978;2023-05-07T07:16:20;100357.34;;;20.10;84.10
2339;BME280;1180;51.438;6.978;2023-05-07T07:18:45;100350.13;;;20.22;83.50
2339;BME280;1180;51.438;6.978;2023-05-07T07:21:10;100353.94;;;20.36;82.65
2339;BME280;1180;51.438;6.978;2023-05-07T07:23:36;100359.75;;;20.30;80.68
2339;BME280;1180;51.438;6.978;2023-05-07T07:26:01;100357.91;;;20.40;80.29
2339;BME280;1180;51.438;6.978;2023-05-07T07:28:26;100357.28;;;20.46;80.23
2339;BME280;1180;51.438;6.978;2023-05-07T07:30:52;100358.66;;;20.59;78.69
2339;BME280;1180;51.438;6.978;2023-05-07T07:33:18;100354.00;;;20.71;78.45
2339;BME280;1180;51.438;6.978;2023-05-07T07:35:43;100354.97;;;20.70;78.48
2339;BME280;1180;51.438;6.978;2023-05-07T07:38:09;100352.44;;;20.86;78.68
2339;BME280;1180;51.438;6.978;2023-05-07T07:40:35;100359.50;;;20.94;78.95
2339;BME280;1180;51.438;6.978;2023-05-07T07:43:00;100353.03;;;21.06;78.89
2339;BME280;1180;51.438;6.978;2023-05-07T07:45:26;100364.16;;;21.09;78.87
2339;BME280;1180;51.438;6.978;2023-05-07T07:47:51;100369.28;;;20.66;79.42
2339;BME280;1180;51.438;6.978;2023-05-07T07:50:17;100378.25;;;20.71;79.88
2339;BME280;1180;51.438;6.978;2023-05-07T07:52:43;100377.09;;;20.66;79.64
2339;BME280;1180;51.438;6.978;2023-05-07T07:55:09;100384.16;;;20.73;78.88
2339;BME280;1180;51.438;6.978;2023-05-07T07:57:34;100379.22;;;20.70;77.99
2339;BME280;1180;51.438;6.978;2023-05-07T07:59:59;100385.16;;;20.54;78.54
2339;BME280;1180;51.438;6.978;2023-05-07T08:02:26;100390.72;;;20.77;79.20
2339;BME280;1180;51.438;6.978;2023-05-07T08:04:51;100390.19;;;21.00;78.15
2339;BME280;1180;51.438;6.978;2023-05-07T08:07:17;100386.78;;;21.08;76.57
2339;BME280;1180;51.438;6.978;2023-05-07T08:09:45;100389.03;;;20.95;77.18
2339;BME280;1180;51.438;6.978;2023-05-07T08:12:11;100384.38;;;21.15;77.61
2339;BME280;1180;51.438;6.978;2023-05-07T08:14:36;100387.22;;;21.38;77.34
2339;BME280;1180;51.438;6.978;2023-05-07T08:17:02;100386.31;;;21.56;76.20
2339;BME280;1180;51.438;6.978;2023-05-07T08:19:27;100380.16;;;21.73;74.37
2339;BME280;1180;51.438;6.978;2023-05-07T08:21:53;100376.88;;;21.79;73.66
2339;BME280;1180;51.438;6.978;2023-05-07T08:24:18;100379.69;;;21.86;73.81
2339;BME280;1180;51.438;6.978;2023-05-07T08:26:44;100372.75;;;21.60;73.52
2339;BME280;1180;51.438;6.978;2023-05-07T08:29:10;100384.91;;;21.78;73.67
2339;BME280;1180;51.438;6.978;2023-05-07T08:31:35;100384.06;;;21.77;72.52
2339;BME280;1180;51.438;6.978;2023-05-07T08:34:01;100388.00;;;21.73;71.70
2339;BME280;1180;51.438;6.978;2023-05-07T08:36:26;100387.19;;;21.89;73.66
2339;BME280;1180;51.438;6.978;2023-05-07T08:38:52;100391.28;;;22.00;71.34
2339;BME280;1180;51.438;6.978;2023-05-07T08:41:18;100390.28;;;22.10;71.26
2339;BME280;1180;51.438;6.978;2023-05-07T08:43:47;100383.09;;;22.12;71.48
2339;BME280;1180;51.438;6.978;2023-05-07T08:46:20;100392.09;;;22.17;70.48
2339;BME280;1180;51.438;6.978;2023-05-07T08:48:49;100383.75;;;22.30;69.23
2339;BME280;1180;51.438;6.978;2023-05-07T08:51:17;100385.72;;;22.20;70.19
2339;BME280;1180;51.438;6.978;2023-05-07T08:53:43;100383.59;;;21.99;70.57
2339;BME280;1180;51.438;6.978;2023-05-07T08:56:09;100383.78;;;22.05;71.76
2339;BME280;1180;51.438;6.978;2023-05-07T08:58:35;100382.44;;;22.18;70.53
2339;BME280;1180;51.438;6.978;2023-05-07T09:01:08;100378.88;;;22.27;71.51
2339;BME280;1180;51.438;6.978;2023-05-07T09:03:35;100378.69;;;22.45;71.02
2339;BME280;1180;51.438;6.978;2023-05-07T09:06:01;100378.66;;;22.37;70.22
2339;BME280;1180;51.438;6.978;2023-05-07T09:08:27;100378.84;;;22.44;72.20
2339;BME280;1180;51.438;6.978;2023-05-07T09:10:53;100378.03;;;22.43;67.72
2339;BME280;1180;51.438;6.978;2023-05-07T09:13:19;100375.75;;;22.48;69.73
2339;BME280;1180;51.438;6.978;2023-05-07T09:15:44;100379.84;;;22.26;69.03
2339;BME280;1180;51.438;6.978;2023-05-07T09:18:10;100375.94;;;22.22;70.09
2339;BME280;1180;51.438;6.978;2023-05-07T09:20:39;100377.41;;;21.91;72.63
2339;BME280;1180;51.438;6.978;2023-05-07T09:23:06;100380.03;;;22.16;73.80
2339;BME280;1180;51.438;6.978;2023-05-07T09:25:34;100374.91;;;22.40;69.82
2339;BME280;1180;51.438;6.978;2023-05-07T09:28:01;100382.13;;;22.46;70.16
2339;BME280;1180;51.438;6.978;2023-05-07T09:30:30;100378.38;;;22.48;69.49
2339;BME280;1180;51.438;6.978;2023-05-07T09:32:58;100375.09;;;22.38;69.26
2339;BME280;1180;51.438;6.978;2023-05-07T09:35:24;100380.47;;;22.53;69.50
2339;BME280;1180;51.438;6.978;2023-05-07T09:37:56;100375.44;;;22.27;70.92
2339;BME280;1180;51.438;6.978;2023-05-07T09:40:27;100383.63;;;22.07;71.77
2339;BME280;1180;51.438;6.978;2023-05-07T09:42:53;100375.78;;;22.15;72.56
2339;BME280;1180;51.438;6.978;2023-05-07T09:45:26;100374.28;;;22.29;71.53
2339;BME280;1180;51.438;6.978;2023-05-07T09:47:54;100375.09;;;22.21;72.88
2339;BME280;1180;51.438;6.978;2023-05-07T09:50:22;100376.22;;;22.52;70.93
2339;BME280;1180;51.438;6.978;2023-05-07T09:52:51;100370.84;;;21.96;71.89
2339;BME280;1180;51.438;6.978;2023-05-07T09:55:17;100376.41;;;21.76;73.40
2339;BME280;1180;51.438;6.978;2023-05-07T09:57:45;100373.94;;;21.74;73.05
2339;BME280;1180;51.438;6.978;2023-05-07T10:00:14;100375.91;;;21.64;72.96
2339;BME280;1180;51.438;6.978;2023-05-07T10:02:41;100374.44;;;21.86;73.79
2339;BME280;1180;51.438;6.978;2023-05-07T10:05:14;100381.16;;;22.30;71.41
2339;BME280;1180;51.438;6.978;2023-05-07T10:07:40;100381.13;;;22.63;69.77
2339;BME280;1180;51.438;6.978;2023-05-07T10:10:06;100379.97;;;22.74;67.58
2339;BME280;1180;51.438;6.978;2023-05-07T10:12:32;100373.72;;;22.84;68.02
2339;BME280;1180;51.438;6.978;2023-05-07T10:15:06;100373.25;;;22.72;68.97
2339;BME280;1180;51.438;6.978;2023-05-07T10:17:38;100379.50;;;23.02;69.43
2339;BME280;1180;51.438;6.978;2023-05-07T10:20:07;100370.03;;;23.01;66.63
2339;BME280;1180;51.438;6.978;2023-05-07T10:22:48;100375.06;;;22.63;68.27
2339;BME280;1180;51.438;6.978;2023-05-07T10:25:26;100371.63;;;22.71;70.09
2339;BME280;1180;51.438;6.978;2023-05-07T10:27:55;100377.69;;;22.71;68.07
2339;BME280;1180;51.438;6.978;2023-05-07T10:33:15;100372.44;;;22.63;69.15
2339;BME280;1180;51.438;6.978;2023-05-07T10:35:43;100378.06;;;23.00;69.26
2339;BME280;1180;51.438;6.978;2023-05-07T10:38:09;100376.91;;;23.42;67.46
2339;BME280;1180;51.438;6.978;2023-05-07T10:40:35;100376.91;;;23.65;66.12
2339;BME280;1180;51.438;6.978;2023-05-07T10:43:04;100380.44;;;23.81;64.82
2339;BME280;1180;51.438;6.978;2023-05-07T10:45:32;100381.28;;;23.97;64.41
2339;BME280;1180;51.438;6.978;2023-05-07T10:48:27;100376.75;;;23.90;63.83
2339;BME280;1180;51.438;6.978;2023-05-07T10:51:19;100385.06;;;23.47;63.38
2339;BME280;1180;51.438;6.978;2023-05-07T10:53:45;100374.28;;;23.42;64.33
2339;BME280;1180;51.438;6.978;2023-05-07T10:58:42;100382.47;;;23.71;63.86
2339;BME280;1180;51.438;6.978;2023-05-07T11:01:07;100372.50;;;23.43;64.76
2339;BME280;1180;51.438;6.978;2023-05-07T11:03:33;100371.91;;;23.24;65.17
2339;BME280;1180;51.438;6.978;2023-05-07T11:06:15;100371.59;;;23.50;65.53
2339;BME280;1180;51.438;6.978;2023-05-07T11:11:18;100376.22;;;22.60;66.08
2339;BME280;1180;51.438;6.978;2023-05-07T11:13:48;100368.44;;;22.92;66.97
2339;BME280;1180;51.438;6.978;2023-05-07T11:16:17;100359.44;;;22.86;67.62
2339;BME280;1180;51.438;6.978;2023-05-07T11:18:48;100363.69;;;22.96;67.22
2339;BME280;1180;51.438;6.978;2023-05-07T11:21:32;100361.88;;;23.04;66.29
2339;BME280;1180;51.438;6.978;2023-05-07T11:23:58;100365.78;;;23.40;65.37
2339;BME280;1180;51.438;6.978;2023-05-07T11:26:24;100363.00;;;23.65;65.07
2339;BME280;1180;51.438;6.978;2023-05-07T11:28:51;100364.38;;;23.29;64.17
2339;BME280;1180;51.438;6.978;2023-05-07T11:31:21;100364.03;;;23.24;65.57
2339;BME280;1180;51.438;6.978;2023-05-07T11:33:47;100363.81;;;23.65;64.40
2339;BME280;1180;51.438;6.978;2023-05-07T11:36:13;100364.63;;;23.89;62.08
2339;BME280;1180;51.438;6.978;2023-05-07T11:38:38;100362.88;;;23.82;62.33
2339;BME280;1180;51.438;6.978;2023-05-07T11:41:04;100357.13;;;23.63;63.69
2339;BME280;1180;51.438;6.978;2023-05-07T11:43:31;100363.38;;;23.62;64.04
2339;BME280;1180;51.438;6.978;2023-05-07T11:46:09;100349.06;;;23.73;64.16
2339;BME280;1180;51.438;6.978;2023-05-07T11:48:34;100361.94;;;23.98;63.28
2339;BME280;1180;51.438;6.978;2023-05-07T11:51:01;100361.72;;;24.07;61.44
2339;BME280;1180;51.438;6.978;2023-05-07T11:53:28;100352.34;;;23.43;62.20
2339;BME280;1180;51.438;6.978;2023-05-07T11:55:56;100366.63;;;23.32;64.08
2339;BME280;1180;51.438;6.978;2023-05-07T11:58:25;100361.25;;;23.34;64.32
2339;BME280;1180;51.438;6.978;2023-05-07T12:00:53;100360.56;;;23.63;62.85
2339;BME280;1180;51.438;6.978;2023-05-07T12:03:20;100359.63;;;23.56;62.63
2339;BME280;1180;51.438;6.978;2023-05-07T12:05:46;100360.34;;;23.73;63.04
2339;BME280;1180;51.438;6.978;2023-05-07T12:08:17;100364.38;;;23.29;63.11
2339;BME280;1180;51.438;6.978;2023-05-07T12:10:43;100366.88;;;23.14;63.97
2339;BME280;1180;51.438;6.978;2023-05-07T12:13:19;100365.25;;;23.13;63.79
2339;BME280;1180;51.438;6.978;2023-05-07T12:15:45;100368.19;;;23.10;64.99
2339;BME280;1180;51.438;6.978;2023-05-07T12:18:11;100368.47;;;23.32;63.61
2339;BME280;1180;51.438;6.978;2023-05-07T12:20:38;100366.63;;;23.41;64.31
2339;BME280;1180;51.438;6.978;2023-05-07T12:23:04;100372.94;;;23.70;63.25
2339;BME280;1180;51.438;6.978;2023-05-07T12:25:31;100370.44;;;24.00;63.63
2339;BME280;1180;51.438;6.978;2023-05-07T12:27:56;100375.59;;;23.93;63.23
2339;BME280;1180;51.438;6.978;2023-05-07T12:30:24;100371.06;;;24.10;63.36
2339;BME280;1180;51.438;6.978;2023-05-07T12:32:54;100373.94;;;24.15;63.08
2339;BME280;1180;51.438;6.978;2023-05-07T12:35:29;100369.06;;;24.12;62.03
2339;BME280;1180;51.438;6.978;2023-05-07T12:37:55;100371.97;;;23.94;62.27
2339;BME280;1180;51.438;6.978;2023-05-07T12:40:21;100379.59;;;23.80;62.32
2339;BME280;1180;51.438;6.978;2023-05-07T12:42:53;100374.84;;;23.61;62.94
2339;BME280;1180;51.438;6.978;2023-05-07T12:45:21;100378.59;;;23.58;63.62
2339;BME280;1180;51.438;6.978;2023-05-07T12:47:47;100376.09;;;23.42;63.66
2339;BME280;1180;51.438;6.978;2023-05-07T12:50:14;100377.25;;;23.62;64.59
2339;BME280;1180;51.438;6.978;2023-05-07T12:52:40;100374.00;;;23.60;63.13
2339;BME280;1180;51.438;6.978;2023-05-07T12:55:09;100380.59;;;23.56;62.94
2339;BME280;1180;51.438;6.978;2023-05-07T12:57:38;100387.66;;;23.47;63.26
2339;BME280;1180;51.438;6.978;2023-05-07T13:00:05;100397.59;;;23.60;64.19
2339;BME280;1180;51.438;6.978;2023-05-07T13:02:37;100387.22;;;23.67;63.46
2339;BME280;1180;51.438;6.978;2023-05-07T13:05:04;100387.00;;;23.54;63.94
2339;BME280;1180;51.438;6.978;2023-05-07T13:07:29;100387.47;;;23.57;64.36
2339;BME280;1180;51.438;6.978;2023-05-07T13:09:55;100396.63;;;23.30;64.03
2339;BME280;1180;51.438;6.978;2023-05-07T13:12:20;100397.06;;;23.42;64.75
2339;BME280;1180;51.438;6.978;2023-05-07T13:14:46;100403.56;;;23.46;65.20